sensor_id;sensor_type;location;lat;lon;timestamp;pressure;altitude;pressure_sealevel;temperature;humidity
73974;BME280;62336;-26.094;27.994;2022-12-29T00:00:27;84855.86;;;31.38;26.80
73974;BME280;62336;-26.094;27.994;2022-12-29T00:02:52;84852.62;;;31.32;26.35
73974;BME280;62336;-26.094;27.994;2022-12-29T00:05:17;84852.28;;;31.27;26.27
73974;BME280;62336;-26.094;27.994;2022-12-29T00:07:43;84855.16;;;31.18;25.88
73974;BME280;62336;-26.094;27.994;2022-12-29T00:10:09;84854.99;;;31.40;26.38
73974;BME280;62336;-26.094;27.994;2022-12-29T00:12:34;84852.33;;;31.12;26.57
73974;BME280;62336;-26.094;27.994;2022-12-29T00:15:00;84852.62;;;31.38;26.66
73974;BME280;62336;-26.094;27.994;2022-12-29T00:17:25;84857.67;;;31.20;26.93
73974;BME280;62336;-26.094;27.994;2022-12-29T00:19:51;84862.82;;;31.53;26.03
73974;BME280;62336;-26.094;27.994;2022-12-29T00:22:17;84858.31;;;31.12;26.72
73974;BME280;62336;-26.094;27.994;2022-12-29T00:24:43;84859.13;;;31.58;25.90
73974;BME280;62336;-26.094;27.994;2022-12-29T00:27:13;84860.67;;;31.51;25.93
73974;BME280;62336;-26.094;27.994;2022-12-29T00:29:33;84869.10;;;31.77;26.24
73974;BME280;62336;-26.094;27.994;2022-12-29T00:31:59;84867.84;;;31.41;26.14
73974;BME280;62336;-26.094;27.994;2022-12-29T00:34:25;84849.00;;;31.03;26.88
73974;BME280;62336;-26.094;27.994;2022-12-29T00:36:50;84840.10;;;31.24;26.73
73974;BME280;62336;-26.094;27.994;2022-12-29T00:39:17;84846.24;;;31.55;26.37
73974;BME280;62336;-26.094;27.994;2022-12-29T00:41:41;84848.56;;;31.30;26.89
73974;BME280;62336;-26.094;27.994;2022-12-29T00:44:08;84844.93;;;30.90;26.79
73974;BME280;62336;-26.094;27.994;2022-12-29T00:46:33;84837.66;;;31.06;26.86
73974;BME280;62336;-26.094;27.994;2022-12-29T00:48:59;84831.46;;;31.59;26.60
73974;BME280;62336;-26.094;27.994;2022-12-29T00:51:24;84826.56;;;30.96;27.06
73974;BME280;62336;-26.094;27.994;2022-12-29T00:53:50;84818.75;;;31.49;26.90
73974;BME280;62336;-26.094;27.994;2022-12-29T00:56:16;84813.71;;;31.32;26.69
73974;BME280;62336;-26.094;27.994;2022-12-29T00:58:42;84808.34;;;31.38;26.92
73974;BME280;62336;-26.094;27.994;2022-12-29T01:01:09;84805.43;;;30.88;26.74
73974;BME280;62336;-26.094;27.994;2022-12-29T01:03:34;84804.85;;;30.89;26.46
73974;BME280;62336;-26.094;27.994;2022-12-29T01:06:02;84804.05;;;30.60;27.05
73974;BME280;62336;-26.094;27.994;2022-12-29T01:08:25;84802.74;;;30.79;27.17
73974;BME280;62336;-26.094;27.994;2022-12-29T01:10:58;84802.56;;;30.89;27.03
73974;BME280;62336;-26.094;27.994;2022-12-29T01:13:16;84795.91;;;31.26;26.92
73974;BME280;62336;-26.094;27.994;2022-12-29T01:15:41;84798.19;;;31.10;27.30
73974;BME280;62336;-26.094;27.994;2022-12-29T01:18:07;84792.98;;;30.89;27.29
73974;BME280;62336;-26.094;27.994;2022-12-29T01:20:33;84790.97;;;30.91;27.24
73974;BME280;62336;-26.094;27.994;2022-12-29T01:22:59;84792.51;;;30.71;27.37
73974;BME280;62336;-26.094;27.994;2022-12-29T01:25:24;84797.00;;;30.47;26.82
73974;BME280;62336;-26.094;27.994;2022-12-29T01:27:50;84798.56;;;31.08;26.30
73974;BME280;62336;-26.094;27.994;2022-12-29T01:30:16;84802.74;;;31.33;26.14
73974;BME280;62336;-26.094;27.994;2022-12-29T01:32:42;84803.13;;;31.15;26.44
73974;BME280;62336;-26.094;27.994;2022-12-29T01:35:08;84805.69;;;31.07;26.61
73974;BME280;62336;-26.094;27.994;2022-12-29T01:37:33;84801.52;;;31.36;26.87
73974;BME280;62336;-26.094;27.994;2022-12-29T01:39:59;84798.85;;;31.62;26.86
73974;BME280;62336;-26.094;27.994;2022-12-29T01:42:25;84800.98;;;31.16;27.10
73974;BME280;62336;-26.094;27.994;2022-12-29T01:44:53;84804.09;;;31.44;27.01
73974;BME280;62336;-26.094;27.994;2022-12-29T01:47:22;84804.82;;;30.82;27.33
73974;BME280;62336;-26.094;27.994;2022-12-29T01:49:42;84801.91;;;30.65;27.44
73974;BME280;62336;-26.094;27.994;2022-12-29T01:52:08;84808.10;;;31.00;26.87
73974;BME280;62336;-26.094;27.994;2022-12-29T01:54:36;84811.53;;;31.36;26.53
73974;BME280;62336;-26.094;27.994;2022-12-29T01:57:02;84811.56;;;31.51;26.92
73974;BME280;62336;-26.094;27.994;2022-12-29T01:59:29;84811.23;;;31.02;27.17
73974;BME280;62336;-26.094;27.994;2022-12-29T02:01:51;84808.75;;;31.32;27.08
73974;BME280;62336;-26.094;27.994;2022-12-29T02:04:17;84804.98;;;31.39;27.08
73974;BME280;62336;-26.094;27.994;2022-12-29T02:06:43;84807.21;;;31.37;27.57
73974;BME280;62336;-26.094;27.994;2022-12-29T04:33:17;84887.73;;;20.55;64.25
73974;BME280;62336;-26.094;27.994;2022-12-29T04:33:20;84886.83;;;20.66;63.95
73974;BME280;62336;-26.094;27.994;2022-12-29T04:35:45;84891.68;;;22.28;54.60
73974;BME280;62336;-26.094;27.994;2022-12-29T04:38:11;84889.57;;;24.57;48.75
73974;BME280;62336;-26.094;27.994;2022-12-29T04:40:39;84892.93;;;26.29;42.07
73974;BME280;62336;-26.094;27.994;2022-12-29T04:43:02;84893.07;;;27.32;38.71
73974;BME280;62336;-26.094;27.994;2022-12-29T04:45:27;84892.61;;;28.34;37.33
73974;BME280;62336;-26.094;27.994;2022-12-29T04:47:53;84895.07;;;28.98;34.93
73974;BME280;62336;-26.094;27.994;2022-12-29T04:50:18;84896.95;;;30.02;32.52
73974;BME280;62336;-26.094;27.994;2022-12-29T04:52:44;84899.45;;;30.71;30.21
73974;BME280;62336;-26.094;27.994;2022-12-29T04:55:10;84902.81;;;31.12;29.64
73974;BME280;62336;-26.094;27.994;2022-12-29T04:57:35;84905.53;;;31.31;29.01
73974;BME280;62336;-26.094;27.994;2022-12-29T05:00:02;84905.64;;;31.08;28.98
73974;BME280;62336;-26.094;27.994;2022-12-29T05:02:25;84910.10;;;31.25;28.66
73974;BME280;62336;-26.094;27.994;2022-12-29T05:04:50;84914.44;;;31.57;28.55
73974;BME280;62336;-26.094;27.994;2022-12-29T05:07:15;84919.34;;;31.60;28.14
73974;BME280;62336;-26.094;27.994;2022-12-29T05:09:40;84919.75;;;31.64;28.38
73974;BME280;62336;-26.094;27.994;2022-12-29T05:12:06;84923.55;;;31.79;29.01
73974;BME280;62336;-26.094;27.994;2022-12-29T05:14:31;84925.31;;;31.96;28.85
73974;BME280;62336;-26.094;27.994;2022-12-29T05:16:56;84926.59;;;31.84;28.94
73974;BME280;62336;-26.094;27.994;2022-12-29T05:26:38;84937.55;;;32.21;27.77
73974;BME280;62336;-26.094;27.994;2022-12-29T05:29:04;84936.87;;;32.30;28.45
73974;BME280;62336;-26.094;27.994;2022-12-29T05:31:29;84936.29;;;32.33;28.49
73974;BME280;62336;-26.094;27.994;2022-12-29T05:33:55;84936.21;;;32.14;28.20
73974;BME280;62336;-26.094;27.994;2022-12-29T05:36:20;84935.66;;;32.09;27.67
73974;BME280;62336;-26.094;27.994;2022-12-29T05:38:46;84927.38;;;32.06;27.72
73974;BME280;62336;-26.094;27.994;2022-12-29T05:41:11;84926.60;;;32.17;28.02
73974;BME280;62336;-26.094;27.994;2022-12-29T05:43:36;84926.68;;;32.28;27.72
73974;BME280;62336;-26.094;27.994;2022-12-29T05:46:02;84926.42;;;32.70;26.86
73974;BME280;62336;-26.094;27.994;2022-12-29T05:48:27;84937.56;;;33.33;26.74
73974;BME280;62336;-26.094;27.994;2022-12-29T05:50:52;84949.32;;;32.91;27.60
73974;BME280;62336;-26.094;27.994;2022-12-29T05:53:18;84963.60;;;32.83;28.13
73974;BME280;62336;-26.094;27.994;2022-12-29T05:55:43;84980.45;;;32.81;27.62
73974;BME280;62336;-26.094;27.994;2022-12-29T05:58:08;84988.63;;;32.56;27.36
73974;BME280;62336;-26.094;27.994;2022-12-29T06:00:33;84999.30;;;31.28;26.11
73974;BME280;62336;-26.094;27.994;2022-12-29T06:02:59;85006.38;;;31.06;25.86
73974;BME280;62336;-26.094;27.994;2022-12-29T06:05:24;85002.18;;;30.69;26.62
73974;BME280;62336;-26.094;27.994;2022-12-29T06:07:49;85005.02;;;30.35;28.47
73974;BME280;62336;-26.094;27.994;2022-12-29T06:10:15;85008.22;;;29.63;30.01
73974;BME280;62336;-26.094;27.994;2022-12-29T06:12:40;85009.36;;;29.37;29.93
73974;BME280;62336;-26.094;27.994;2022-12-29T06:15:07;85014.49;;;28.60;31.02
73974;BME280;62336;-26.094;27.994;2022-12-29T06:17:32;85013.54;;;28.61;31.20
73974;BME280;62336;-26.094;27.994;2022-12-29T06:19:58;85025.27;;;28.53;31.60
73974;BME280;62336;-26.094;27.994;2022-12-29T06:22:24;85032.01;;;28.37;32.03
73974;BME280;62336;-26.094;27.994;2022-12-29T06:24:49;85039.53;;;28.42;32.00
73974;BME280;62336;-26.094;27.994;2022-12-29T06:27:15;85049.11;;;27.93;32.21
73974;BME280;62336;-26.094;27.994;2022-12-29T06:29:41;85061.98;;;28.51;32.59
73974;BME280;62336;-26.094;27.994;2022-12-29T06:32:06;85068.66;;;28.48;32.07
73974;BME280;62336;-26.094;27.994;2022-12-29T06:34:32;85076.58;;;28.08;32.35
73974;BME280;62336;-26.094;27.994;2022-12-29T06:36:58;85079.74;;;27.89;33.02
73974;BME280;62336;-26.094;27.994;2022-12-29T06:39:23;85073.91;;;28.28;33.83
73974;BME280;62336;-26.094;27.994;2022-12-29T06:41:52;85069.61;;;29.13;32.91
73974;BME280;62336;-26.094;27.994;2022-12-29T06:44:15;85057.95;;;28.34;32.92
73974;BME280;62336;-26.094;27.994;2022-12-29T06:46:41;85057.77;;;28.49;32.30
73974;BME280;62336;-26.094;27.994;2022-12-29T06:49:06;85064.69;;;28.52;31.67
73974;BME280;62336;-26.094;27.994;2022-12-29T06:51:32;85065.00;;;28.27;32.58
73974;BME280;62336;-26.094;27.994;2022-12-29T06:53:58;85067.23;;;27.81;33.27
73974;BME280;62336;-26.094;27.994;2022-12-29T06:56:23;85066.57;;;28.22;32.44
73974;BME280;62336;-26.094;27.994;2022-12-29T06:58:49;85066.61;;;27.83;32.69
73974;BME280;62336;-26.094;27.994;2022-12-29T07:01:14;85063.09;;;27.75;33.40
73974;BME280;62336;-26.094;27.994;2022-12-29T07:03:42;85059.25;;;27.43;33.68
73974;BME280;62336;-26.094;27.994;2022-12-29T07:06:06;85051.98;;;27.60;33.85
73974;BME280;62336;-26.094;27.994;2022-12-29T07:08:31;85039.49;;;27.29;33.99
73974;BME280;62336;-26.094;27.994;2022-12-29T07:10:57;85038.42;;;26.83;33.98
73974;BME280;62336;-26.094;27.994;2022-12-29T07:13:22;85043.12;;;27.60;33.81
73974;BME280;62336;-26.094;27.994;2022-12-29T07:15:48;85054.29;;;27.47;33.95
73974;BME280;62336;-26.094;27.994;2022-12-29T07:18:14;85061.91;;;26.53;34.94
73974;BME280;62336;-26.094;27.994;2022-12-29T07:20:39;85065.12;;;27.13;34.08
73974;BME280;62336;-26.094;27.994;2022-12-29T07:23:04;85067.36;;;27.42;34.25
73974;BME280;62336;-26.094;27.994;2022-12-29T07:25:30;85066.46;;;27.24;35.28
73974;BME280;62336;-26.094;27.994;2022-12-29T07:27:55;85068.40;;;27.03;35.58
73974;BME280;62336;-26.094;27.994;2022-12-29T07:30:21;85075.72;;;28.02;33.02
73974;BME280;62336;-26.094;27.994;2022-12-29T07:32:45;85069.47;;;27.28;35.09
73974;BME280;62336;-26.094;27.994;2022-12-29T07:35:11;85071.78;;;27.42;34.78
73974;BME280;62336;-26.094;27.994;2022-12-29T07:37:37;85079.78;;;27.50;33.05
73974;BME280;62336;-26.094;27.994;2022-12-29T07:40:02;85080.89;;;27.77;33.69
73974;BME280;62336;-26.094;27.994;2022-12-29T07:42:28;85084.70;;;28.28;32.47
73974;BME280;62336;-26.094;27.994;2022-12-29T07:44:53;85085.21;;;27.70;32.57
73974;BME280;62336;-26.094;27.994;2022-12-29T07:47:18;85088.91;;;27.72;32.36
73974;BME280;62336;-26.094;27.994;2022-12-29T07:49:44;85089.86;;;28.16;32.93
73974;BME280;62336;-26.094;27.994;2022-12-29T07:52:10;85078.14;;;28.51;32.42
73974;BME280;62336;-26.094;27.994;2022-12-29T07:54:36;85076.98;;;28.16;33.24
73974;BME280;62336;-26.094;27.994;2022-12-29T07:57:01;85078.90;;;28.28;32.91
73974;BME280;62336;-26.094;27.994;2022-12-29T07:59:27;85076.47;;;28.53;32.94
73974;BME280;62336;-26.094;27.994;2022-12-29T08:01:53;85081.94;;;28.14;33.02
73974;BME280;62336;-26.094;27.994;2022-12-29T08:04:18;85087.53;;;28.77;31.84
73974;BME280;62336;-26.094;27.994;2022-12-29T08:06:43;85088.70;;;29.37;31.36
73974;BME280;62336;-26.094;27.994;2022-12-29T08:09:09;85087.49;;;28.82;31.50
73974;BME280;62336;-26.094;27.994;2022-12-29T08:11:35;85086.41;;;28.80;31.64
73974;BME280;62336;-26.094;27.994;2022-12-29T08:14:02;85080.65;;;28.88;31.74
73974;BME280;62336;-26.094;27.994;2022-12-29T08:16:27;85080.57;;;29.02;32.58
73974;BME280;62336;-26.094;27.994;2022-12-29T08:18:53;85083.83;;;28.93;31.79
73974;BME280;62336;-26.094;27.994;2022-12-29T08:21:18;85083.50;;;29.85;31.64
73974;BME280;62336;-26.094;27.994;2022-12-29T08:23:43;85084.15;;;29.46;31.16
73974;BME280;62336;-26.094;27.994;2022-12-29T08:26:11;85080.23;;;29.44;32.30
73974;BME280;62336;-26.094;27.994;2022-12-29T08:28:36;85079.66;;;29.24;32.45
73974;BME280;62336;-26.094;27.994;2022-12-29T08:31:01;85083.46;;;29.97;30.45
73974;BME280;62336;-26.094;27.994;2022-12-29T08:33:27;85093.77;;;30.37;30.16
73974;BME280;62336;-26.094;27.994;2022-12-29T08:35:52;85097.08;;;30.08;30.50
73974;BME280;62336;-26.094;27.994;2022-12-29T08:38:17;85091.38;;;30.36;30.12
73974;BME280;62336;-26.094;27.994;2022-12-29T08:40:43;85085.09;;;30.18;30.50
73974;BME280;62336;-26.094;27.994;2022-12-29T08:43:08;85083.50;;;30.28;30.31
73974;BME280;62336;-26.094;27.994;2022-12-29T08:45:34;85086.65;;;29.77;30.18
73974;BME280;62336;-26.094;27.994;2022-12-29T08:47:59;85090.45;;;30.36;30.45
73974;BME280;62336;-26.094;27.994;2022-12-29T08:50:24;85098.52;;;30.16;30.02
73974;BME280;62336;-26.094;27.994;2022-12-29T08:52:49;85093.86;;;30.00;30.25
73974;BME280;62336;-26.094;27.994;2022-12-29T08:55:15;85082.55;;;30.48;29.34
73974;BME280;62336;-26.094;27.994;2022-12-29T08:57:41;85100.98;;;30.00;29.35
73974;BME280;62336;-26.094;27.994;2022-12-29T09:00:08;85102.71;;;30.04;31.25
73974;BME280;62336;-26.094;27.994;2022-12-29T09:02:32;85086.47;;;30.00;30.53
73974;BME280;62336;-26.094;27.994;2022-12-29T09:04:58;85069.21;;;29.43;30.62
73974;BME280;62336;-26.094;27.994;2022-12-29T09:07:24;85064.44;;;29.32;31.28
73974;BME280;62336;-26.094;27.994;2022-12-29T09:09:49;85066.15;;;29.28;31.67
73974;BME280;62336;-26.094;27.994;2022-12-29T09:12:16;85057.86;;;29.44;30.99
73974;BME280;62336;-26.094;27.994;2022-12-29T09:14:40;85049.70;;;29.61;30.86
73974;BME280;62336;-26.094;27.994;2022-12-29T09:17:06;85052.14;;;29.48;31.51
73974;BME280;62336;-26.094;27.994;2022-12-29T09:19:32;85047.61;;;29.77;31.27
73974;BME280;62336;-26.094;27.994;2022-12-29T09:21:58;85044.52;;;29.83;30.84
73974;BME280;62336;-26.094;27.994;2022-12-29T09:24:24;85036.69;;;29.42;31.44
73974;BME280;62336;-26.094;27.994;2022-12-29T09:26:49;85032.19;;;29.68;31.06
73974;BME280;62336;-26.094;27.994;2022-12-29T09:29:15;85027.70;;;30.15;30.79
73974;BME280;62336;-26.094;27.994;2022-12-29T09:31:40;85028.06;;;30.39;30.44
73974;BME280;62336;-26.094;27.994;2022-12-29T09:34:06;85030.54;;;30.85;29.86
73974;BME280;62336;-26.094;27.994;2022-12-29T09:36:32;85031.63;;;30.82;29.88
73974;BME280;62336;-26.094;27.994;2022-12-29T09:38:57;85031.63;;;31.06;30.35
73974;BME280;62336;-26.094;27.994;2022-12-29T09:41:29;85033.34;;;31.42;29.91
73974;BME280;62336;-26.094;27.994;2022-12-29T09:44:01;85034.66;;;31.45;29.95
73974;BME280;62336;-26.094;27.994;2022-12-29T09:46:21;85035.31;;;31.88;29.29
73974;BME280;62336;-26.094;27.994;2022-12-29T09:48:45;85036.28;;;31.93;29.19
73974;BME280;62336;-26.094;27.994;2022-12-29T09:51:11;85035.64;;;31.60;29.14
73974;BME280;62336;-26.094;27.994;2022-12-29T09:53:38;85036.46;;;31.64;29.67
73974;BME280;62336;-26.094;27.994;2022-12-29T09:56:00;85040.11;;;31.68;29.20
73974;BME280;62336;-26.094;27.994;2022-12-29T09:58:30;85045.59;;;31.28;29.45
73974;BME280;62336;-26.094;27.994;2022-12-29T10:00:54;85041.79;;;31.04;29.37
73974;BME280;62336;-26.094;27.994;2022-12-29T10:03:17;85037.86;;;31.06;29.95
73974;BME280;62336;-26.094;27.994;2022-12-29T10:05:47;85030.67;;;31.31;29.45
73974;BME280;62336;-26.094;27.994;2022-12-29T10:10:48;85029.67;;;28.33;33.97
73974;BME280;62336;-26.094;27.994;2022-12-29T10:13:18;85022.32;;;29.66;32.56
73974;BME280;62336;-26.094;27.994;2022-12-29T10:15:43;85021.82;;;30.55;30.82
73974;BME280;62336;-26.094;27.994;2022-12-29T10:18:02;85019.21;;;31.28;29.15
73974;BME280;62336;-26.094;27.994;2022-12-29T10:20:28;85017.16;;;31.74;28.30
73974;BME280;62336;-26.094;27.994;2022-12-29T10:23:01;85015.19;;;31.81;28.44
73974;BME280;62336;-26.094;27.994;2022-12-29T10:25:17;85012.44;;;32.22;28.26
73974;BME280;62336;-26.094;27.994;2022-12-29T10:27:40;85007.40;;;32.04;28.35
73974;BME280;62336;-26.094;27.994;2022-12-29T10:30:10;85006.33;;;31.93;26.91
73974;BME280;62336;-26.094;27.994;2022-12-29T10:32:36;85008.57;;;32.64;27.33
73974;BME280;62336;-26.094;27.994;2022-12-29T10:34:58;85005.26;;;32.27;28.42
73974;BME280;62336;-26.094;27.994;2022-12-29T10:37:30;85010.13;;;32.55;27.77
73974;BME280;62336;-26.094;27.994;2022-12-29T10:39:50;85005.91;;;32.44;27.04
73974;BME280;62336;-26.094;27.994;2022-12-29T10:42:18;85003.54;;;32.75;26.27
73974;BME280;62336;-26.094;27.994;2022-12-29T10:44:39;84998.17;;;32.83;27.48
73974;BME280;62336;-26.094;27.994;2022-12-29T10:47:06;84997.06;;;32.60;27.09
73974;BME280;62336;-26.094;27.994;2022-12-29T10:49:31;84993.40;;;33.10;25.11
73974;BME280;62336;-26.094;27.994;2022-12-29T10:51:58;84990.62;;;33.49;25.21
73974;BME280;62336;-26.094;27.994;2022-12-29T10:54:25;84984.68;;;33.02;26.06
73974;BME280;62336;-26.094;27.994;2022-12-29T10:56:50;84984.57;;;33.48;25.10
73974;BME280;62336;-26.094;27.994;2022-12-29T10:59:21;84986.05;;;33.29;25.11
73974;BME280;62336;-26.094;27.994;2022-12-29T11:01:46;84987.75;;;33.90;26.26
73974;BME280;62336;-26.094;27.994;2022-12-29T11:04:28;84981.50;;;33.56;23.07
73974;BME280;62336;-26.094;27.994;2022-12-29T11:06:30;84980.15;;;33.63;24.13
73974;BME280;62336;-26.094;27.994;2022-12-29T11:08:58;84977.95;;;33.31;24.16
73974;BME280;62336;-26.094;27.994;2022-12-29T11:11:25;84978.10;;;33.20;27.12
73974;BME280;62336;-26.094;27.994;2022-12-29T11:13:49;84977.02;;;34.01;24.09
73974;BME280;62336;-26.094;27.994;2022-12-29T11:16:13;84975.74;;;33.73;25.34
73974;BME280;62336;-26.094;27.994;2022-12-29T11:18:40;84971.88;;;33.65;25.56
73974;BME280;62336;-26.094;27.994;2022-12-29T11:21:09;84968.14;;;34.06;24.79
73974;BME280;62336;-26.094;27.994;2022-12-29T11:23:34;84963.50;;;33.75;23.83
73974;BME280;62336;-26.094;27.994;2022-12-29T11:26:12;84967.24;;;33.76;24.87
73974;BME280;62336;-26.094;27.994;2022-12-29T11:28:22;84969.24;;;33.72;25.34
73974;BME280;62336;-26.094;27.994;2022-12-29T11:30:55;84964.28;;;33.88;23.93
73974;BME280;62336;-26.094;27.994;2022-12-29T11:33:14;84959.13;;;33.59;24.12
73974;BME280;62336;-26.094;27.994;2022-12-29T11:35:42;84959.25;;;33.69;23.27
73974;BME280;62336;-26.094;27.994;2022-12-29T11:38:06;84956.26;;;34.01;23.58
73974;BME280;62336;-26.094;27.994;2022-12-29T11:40:31;84955.74;;;33.28;24.05
73974;BME280;62336;-26.094;27.994;2022-12-29T11:42:58;84955.30;;;33.70;24.73
73974;BME280;62336;-26.094;27.994;2022-12-29T11:45:24;84953.39;;;33.80;26.17
73974;BME280;62336;-26.094;27.994;2022-12-29T11:47:50;84954.61;;;33.88;24.39
73974;BME280;62336;-26.094;27.994;2022-12-29T11:50:19;84951.27;;;33.73;24.23
73974;BME280;62336;-26.094;27.994;2022-12-29T11:52:40;84947.19;;;34.09;24.47
73974;BME280;62336;-26.094;27.994;2022-12-29T11:55:17;84941.04;;;33.96;24.77
73974;BME280;62336;-26.094;27.994;2022-12-29T11:57:33;84941.30;;;33.71;24.80
73974;BME280;62336;-26.094;27.994;2022-12-29T11:59:58;84941.43;;;33.52;26.64
73974;BME280;62336;-26.094;27.994;2022-12-29T12:02:34;84942.12;;;33.45;27.28
73974;BME280;62336;-26.094;27.994;2022-12-29T12:04:51;84938.00;;;33.06;26.33
73974;BME280;62336;-26.094;27.994;2022-12-29T12:08:18;84930.96;;;33.97;25.62
73974;BME280;62336;-26.094;27.994;2022-12-29T12:10:43;84930.84;;;34.45;23.99
73974;BME280;62336;-26.094;27.994;2022-12-29T12:13:11;84936.41;;;33.79;24.70
73974;BME280;62336;-26.094;27.994;2022-12-29T12:15:36;84935.78;;;34.04;25.29
73974;BME280;62336;-26.094;27.994;2022-12-29T12:18:03;84934.81;;;34.24;24.59
73974;BME280;62336;-26.094;27.994;2022-12-29T12:20:27;84933.39;;;33.80;25.80
73974;BME280;62336;-26.094;27.994;2022-12-29T12:22:54;84933.10;;;33.42;26.63
73974;BME280;62336;-26.094;27.994;2022-12-29T12:25:19;84926.37;;;33.73;25.62
73974;BME280;62336;-26.094;27.994;2022-12-29T12:27:43;84919.95;;;34.28;25.03
73974;BME280;62336;-26.094;27.994;2022-12-29T12:30:11;84915.19;;;34.13;24.35
73974;BME280;62336;-26.094;27.994;2022-12-29T12:32:38;84917.45;;;33.71;25.33
73974;BME280;62336;-26.094;27.994;2022-12-29T12:34:56;84918.64;;;33.84;24.84
73974;BME280;62336;-26.094;27.994;2022-12-29T12:37:35;84918.40;;;33.52;25.80
73974;BME280;62336;-26.094;27.994;2022-12-29T12:40:00;84917.30;;;33.50;24.97
73974;BME280;62336;-26.094;27.994;2022-12-29T12:42:25;84915.44;;;33.61;23.92
73974;BME280;62336;-26.094;27.994;2022-12-29T12:44:46;84911.95;;;33.49;25.26
73974;BME280;62336;-26.094;27.994;2022-12-29T12:47:18;84906.31;;;33.54;25.29
73974;BME280;62336;-26.094;27.994;2022-12-29T12:52:03;84900.82;;;33.29;25.49
73974;BME280;62336;-26.094;27.994;2022-12-29T12:54:35;84904.81;;;33.30;25.09
73974;BME280;62336;-26.094;27.994;2022-12-29T12:56:57;84907.92;;;32.88;24.67
73974;BME280;62336;-26.094;27.994;2022-12-29T12:59:26;84912.26;;;31.98;23.64
73974;BME280;62336;-26.094;27.994;2022-12-29T13:01:48;84906.20;;;31.91;24.41
73974;BME280;62336;-26.094;27.994;2022-12-29T13:04:21;84901.13;;;31.92;24.73
73974;BME280;62336;-26.094;27.994;2022-12-29T13:06:40;84890.74;;;32.12;23.96
73974;BME280;62336;-26.094;27.994;2022-12-29T13:11:31;84885.60;;;32.48;22.43
73974;BME280;62336;-26.094;27.994;2022-12-29T13:14:01;84884.99;;;32.46;23.54
73974;BME280;62336;-26.094;27.994;2022-12-29T13:16:22;84881.54;;;32.63;24.49
73974;BME280;62336;-26.094;27.994;2022-12-29T13:18:48;84880.09;;;32.75;23.36
73974;BME280;62336;-26.094;27.994;2022-12-29T13:21:11;84876.90;;;32.38;23.51
73974;BME280;62336;-26.094;27.994;2022-12-29T13:23:39;84874.03;;;33.19;23.34
73974;BME280;62336;-26.094;27.994;2022-12-29T13:26:04;84871.00;;;33.06;22.67
73974;BME280;62336;-26.094;27.994;2022-12-29T13:28:30;84867.14;;;32.84;21.97
73974;BME280;62336;-26.094;27.994;2022-12-29T13:30:57;84861.02;;;32.62;22.63
73974;BME280;62336;-26.094;27.994;2022-12-29T13:33:22;84858.95;;;32.78;22.16
73974;BME280;62336;-26.094;27.994;2022-12-29T13:35:57;84851.85;;;33.13;22.43
73974;BME280;62336;-26.094;27.994;2022-12-29T13:38:12;84847.16;;;33.37;21.55
73974;BME280;62336;-26.094;27.994;2022-12-29T13:40:38;84846.27;;;33.51;21.84
73974;BME280;62336;-26.094;27.994;2022-12-29T13:43:00;84840.37;;;33.75;21.79
73974;BME280;62336;-26.094;27.994;2022-12-29T13:45:28;84840.11;;;33.55;21.43
73974;BME280;62336;-26.094;27.994;2022-12-29T13:47:54;84840.03;;;33.60;21.65
73974;BME280;62336;-26.094;27.994;2022-12-29T13:50:19;84836.24;;;33.73;22.03
73974;BME280;62336;-26.094;27.994;2022-12-29T13:52:48;84836.19;;;34.15;22.26
73974;BME280;62336;-26.094;27.994;2022-12-29T13:55:19;84832.44;;;33.51;22.11
73974;BME280;62336;-26.094;27.994;2022-12-29T13:57:41;84828.07;;;33.79;21.78
73974;BME280;62336;-26.094;27.994;2022-12-29T14:00:03;84822.20;;;34.06;21.59
73974;BME280;62336;-26.094;27.994;2022-12-29T14:02:30;84819.55;;;33.76;22.10
73974;BME280;62336;-26.094;27.994;2022-12-29T14:04:58;84814.37;;;34.46;20.65
73974;BME280;62336;-26.094;27.994;2022-12-29T14:07:18;84814.01;;;33.89;20.98
73974;BME280;62336;-26.094;27.994;2022-12-29T14:09:46;84816.78;;;33.95;21.82
73974;BME280;62336;-26.094;27.994;2022-12-29T14:12:20;84814.41;;;33.88;20.65
73974;BME280;62336;-26.094;27.994;2022-12-29T14:14:36;84811.22;;;33.92;21.00
73974;BME280;62336;-26.094;27.994;2022-12-29T14:17:09;84802.77;;;33.53;21.10
73974;BME280;62336;-26.094;27.994;2022-12-29T14:19:28;84798.74;;;33.98;21.32
73974;BME280;62336;-26.094;27.994;2022-12-29T14:21:54;84800.84;;;33.64;20.60
73974;BME280;62336;-26.094;27.994;2022-12-29T14:24:27;84796.89;;;34.35;21.56
73974;BME280;62336;-26.094;27.994;2022-12-29T14:26:43;84799.02;;;34.09;21.05
73974;BME280;62336;-26.094;27.994;2022-12-29T14:31:35;84796.95;;;33.69;20.94
73974;BME280;62336;-26.094;27.994;2022-12-29T14:36:34;84789.25;;;34.82;20.77
73974;BME280;62336;-26.094;27.994;2022-12-29T14:38:53;84785.10;;;34.68;21.63
73974;BME280;62336;-26.094;27.994;2022-12-29T14:41:26;84784.64;;;33.40;22.15
73974;BME280;62336;-26.094;27.994;2022-12-29T14:43:56;84783.37;;;34.71;21.57
73974;BME280;62336;-26.094;27.994;2022-12-29T14:46:10;84779.07;;;34.39;20.40
73974;BME280;62336;-26.094;27.994;2022-12-29T14:48:39;84778.34;;;34.21;20.98
73974;BME280;62336;-26.094;27.994;2022-12-29T14:51:01;84779.75;;;34.55;21.24
73974;BME280;62336;-26.094;27.994;2022-12-29T14:53:42;84777.21;;;34.42;21.42
73974;BME280;62336;-26.094;27.994;2022-12-29T14:55:55;84780.16;;;34.66;21.05
73974;BME280;62336;-26.094;27.994;2022-12-29T14:58:22;84777.14;;;34.13;21.40
73974;BME280;62336;-26.094;27.994;2022-12-29T15:00:45;84775.21;;;34.50;21.08
73974;BME280;62336;-26.094;27.994;2022-12-29T15:03:17;84773.30;;;34.16;20.68
73974;BME280;62336;-26.094;27.994;2022-12-29T15:05:41;84775.87;;;34.63;21.29
73974;BME280;62336;-26.094;27.994;2022-12-29T15:08:01;84777.05;;;34.68;21.40
73974;BME280;62336;-26.094;27.994;2022-12-29T15:10:33;84774.08;;;34.53;21.16
73974;BME280;62336;-26.094;27.994;2022-12-29T15:12:54;84768.34;;;34.24;20.85